Time;durP1;ratioP1;P1;durP2;ratioP2;P2;SDS_P1;SDS_P2;PMS_P1;PMS_P2;Temp;Humidity;BMP_temperature;BMP_pressure;BME280_temperature;BME280_humidity;BME280_pressure;Samples;Min_cycle;Max_cycle;Signal;HPM_P1;HPM_P2
2023/07/23 00:00:09;;;;;;;2.70;2.37;;;23.60;71.70;;;;;;5080312;28;20997;-59
2023/07/23 00:02:36;;;;;;;2.83;2.40;;;23.60;71.70;;;;;;5071533;28;20462;-57
2023/07/23 00:05:03;;;;;;;3.17;2.87;;;23.60;72.50;;;;;;5061986;28;20766;-59
2023/07/23 00:07:30;;;;;;;3.50;3.10;;;23.60;71.80;;;;;;5062792;28;21894;-59
2023/07/23 00:09:56;;;;;;;3.20;2.60;;;23.60;71.80;;;;;;5065733;28;20479;-59
2023/07/23 00:12:24;;;;;;;2.67;2.47;;;23.60;71.80;;;;;;5054124;28;20471;-60
2023/07/23 00:14:51;;;;;;;3.50;2.50;;;23.60;71.80;;;;;;5055322;28;20467;-59
2023/07/23 00:17:18;;;;;;;3.10;2.80;;;23.60;71.90;;;;;;5055003;28;20784;-60
2023/07/23 00:19:44;;;;;;;2.83;2.50;;;23.60;71.90;;;;;;5054219;28;21174;-60
2023/07/23 00:22:11;;;;;;;3.70;2.90;;;23.50;72.60;;;;;;5053461;28;20469;-60
2023/07/23 00:24:38;;;;;;;2.80;2.60;;;23.50;71.80;;;;;;5054512;28;20796;-59
2023/07/23 00:27:05;;;;;;;2.70;2.50;;;23.50;71.80;;;;;;5067422;28;20978;-59
2023/07/23 00:29:33;;;;;;;3.00;2.77;;;23.50;71.80;;;;;;5073044;28;20514;-59
2023/07/23 00:32:00;;;;;;;2.53;2.30;;;23.50;71.80;;;;;;5072390;28;20471;-59
2023/07/23 00:34:27;;;;;;;3.03;2.30;;;23.50;71.80;;;;;;5070529;28;20982;-59
2023/07/23 00:36:53;;;;;;;2.40;2.20;;;23.50;71.90;;;;;;5068905;28;20675;-60
2023/07/23 00:39:20;;;;;;;2.30;2.10;;;23.50;71.90;;;;;;5070834;28;20455;-59
2023/07/23 00:41:47;;;;;;;2.70;2.50;;;23.50;72.00;;;;;;5073168;28;20934;-59
2023/07/23 00:44:13;;;;;;;2.93;2.60;;;23.50;71.90;;;;;;5067518;28;20460;-59
2023/07/23 00:46:42;;;;;;;2.40;2.20;;;23.50;72.00;;;;;;5070051;28;20471;-59
2023/07/23 00:49:09;;;;;;;2.60;2.30;;;23.50;72.00;;;;;;5069218;28;20475;-59
2023/07/23 00:51:36;;;;;;;3.23;2.73;;;23.50;72.00;;;;;;5070535;28;20486;-59
2023/07/23 00:54:03;;;;;;;2.30;2.10;;;23.50;72.00;;;;;;5070484;28;20457;-59
2023/07/23 00:56:31;;;;;;;2.57;2.37;;;23.50;72.10;;;;;;5071148;28;20562;-59
2023/07/23 00:58:58;;;;;;;2.50;2.30;;;23.50;72.10;;;;;;5063766;28;20817;-59
2023/07/23 01:01:26;;;;;;;3.10;2.53;;;23.50;72.10;;;;;;5072789;28;20707;-59
2023/07/23 01:03:54;;;;;;;2.40;2.20;;;23.50;72.10;;;;;;5071862;28;20461;-59
2023/07/23 01:06:21;;;;;;;2.90;2.40;;;23.50;72.10;;;;;;5070078;28;20464;-59
2023/07/23 01:08:49;;;;;;;2.50;2.30;;;23.40;72.00;;;;;;5069176;28;20481;-57
2023/07/23 01:11:17;;;;;;;2.77;2.57;;;23.40;72.10;;;;;;5072387;28;20480;-59
2023/07/23 01:13:44;;;;;;;3.10;2.83;;;23.40;72.10;;;;;;5070876;28;20455;-59
2023/07/23 01:16:11;;;;;;;2.67;2.47;;;23.40;72.10;;;;;;5071711;28;20942;-59
2023/07/23 01:18:40;;;;;;;2.40;2.20;;;23.40;72.10;;;;;;5072138;28;20458;-59
2023/07/23 01:21:09;;;;;;;2.17;1.97;;;23.40;72.10;;;;;;5067423;28;20463;-59
2023/07/23 01:23:38;;;;;;;3.23;2.10;;;23.40;72.20;;;;;;5068537;28;20452;-59
2023/07/23 01:26:07;;;;;;;2.40;1.97;;;23.40;72.20;;;;;;5081588;28;20799;-59
2023/07/23 01:28:33;;;;;;;2.53;2.33;;;23.40;73.00;;;;;;5094490;28;20463;-59
2023/07/23 01:31:00;;;;;;;2.50;2.23;;;23.40;72.20;;;;;;5090147;28;20926;-59
2023/07/23 01:33:28;;;;;;;2.57;2.37;;;23.40;73.00;;;;;;5087868;27;20463;-59
2023/07/23 01:35:57;;;;;;;2.83;2.00;;;23.40;72.20;;;;;;5079777;28;21079;-59
2023/07/23 01:38:25;;;;;;;2.30;2.10;;;23.40;72.30;;;;;;5084002;28;20470;-59
2023/07/23 01:40:53;;;;;;;2.60;2.40;;;23.40;72.30;;;;;;5089956;28;20487;-59
2023/07/23 01:43:20;;;;;;;2.50;2.17;;;23.40;72.30;;;;;;5094945;28;20575;-59
2023/07/23 01:45:47;;;;;;;2.33;2.13;;;23.40;72.30;;;;;;5094310;28;20458;-59
2023/07/23 01:48:16;;;;;;;2.43;2.23;;;23.40;72.30;;;;;;5097610;28;20474;-59
2023/07/23 01:50:42;;;;;;;2.77;2.30;;;23.40;72.30;;;;;;5091413;28;20479;-59
2023/07/23 01:53:09;;;;;;;3.33;2.33;;;23.40;72.30;;;;;;5087523;28;20462;-59
2023/07/23 01:55:37;;;;;;;2.63;2.43;;;23.40;72.40;;;;;;5086296;28;20458;-59
2023/07/23 01:58:05;;;;;;;1.80;1.70;;;23.40;72.40;;;;;;5084806;28;20818;-59
2023/07/23 02:00:31;;;;;;;2.60;2.40;;;23.40;72.40;;;;;;5077755;28;20475;-59
2023/07/23 02:02:58;;;;;;;2.87;2.50;;;23.40;72.50;;;;;;5074672;28;20467;-59
2023/07/23 02:05:25;;;;;;;3.30;2.23;;;23.30;72.30;;;;;;5079192;28;20459;-59
2023/07/23 02:07:51;;;;;;;2.10;1.90;;;23.30;72.30;;;;;;5079152;28;20461;-59
2023/07/23 02:10:20;;;;;;;3.30;3.00;;;23.30;72.40;;;;;;5082205;28;20483;-59
2023/07/23 02:12:47;;;;;;;3.03;2.63;;;23.30;72.50;;;;;;5083823;28;20858;-59
2023/07/23 02:15:16;;;;;;;2.17;2.00;;;23.30;72.40;;;;;;5084442;28;20455;-59
2023/07/23 02:17:43;;;;;;;2.50;2.30;;;23.30;72.40;;;;;;5084995;28;20462;-59
2023/07/23 02:20:11;;;;;;;2.83;2.10;;;23.30;72.50;;;;;;5087317;28;20803;-59
2023/07/23 02:22:38;;;;;;;2.53;2.10;;;23.30;72.50;;;;;;5086170;28;20575;-59
2023/07/23 02:25:05;;;;;;;2.50;2.30;;;23.30;72.50;;;;;;5084335;28;20453;-59
2023/07/23 02:27:32;;;;;;;2.10;1.90;;;23.30;72.60;;;;;;5085332;28;21106;-59
2023/07/23 02:29:59;;;;;;;2.50;2.20;;;23.30;72.60;;;;;;5085157;28;21060;-59
2023/07/23 02:32:27;;;;;;;2.50;2.30;;;23.30;72.60;;;;;;5087530;28;20848;-59
2023/07/23 02:34:54;;;;;;;3.20;1.97;;;23.30;72.60;;;;;;5083372;28;20482;-59
2023/07/23 02:37:20;;;;;;;2.87;2.67;;;23.30;72.60;;;;;;5080510;28;20459;-59
2023/07/23 02:39:47;;;;;;;2.40;2.20;;;23.30;72.60;;;;;;5088583;28;20463;-59
2023/07/23 02:42:14;;;;;;;3.07;2.23;;;23.30;72.60;;;;;;5083114;28;22892;-59
2023/07/23 02:44:40;;;;;;;2.17;1.97;;;23.30;72.60;;;;;;5078278;28;20507;-59
2023/07/23 02:47:07;;;;;;;2.40;2.20;;;23.30;72.70;;;;;;5074853;28;20468;-59
2023/07/23 02:49:35;;;;;;;2.47;2.27;;;23.30;72.70;;;;;;5079884;28;20494;-59
2023/07/23 02:52:04;;;;;;;2.10;1.90;;;23.30;72.70;;;;;;5078935;28;20470;-59
2023/07/23 02:54:31;;;;;;;2.13;1.87;;;23.30;72.70;;;;;;5078716;27;20580;-59
2023/07/23 02:56:58;;;;;;;2.57;2.37;;;23.30;73.50;;;;;;5080406;28;20459;-59
2023/07/23 02:59:25;;;;;;;2.30;2.07;;;23.30;72.70;;;;;;5079056;28;20474;-59
2023/07/23 03:01:52;;;;;;;2.07;1.87;;;23.30;72.80;;;;;;5078906;28;20486;-59
2023/07/23 03:04:18;;;;;;;2.37;2.00;;;23.30;72.80;;;;;;5078304;28;20462;-59
2023/07/23 03:06:46;;;;;;;2.33;2.13;;;23.30;72.70;;;;;;5079463;28;20969;-59
2023/07/23 03:09:13;;;;;;;2.20;2.00;;;23.20;72.60;;;;;;5076836;28;21118;-58
2023/07/23 03:11:40;;;;;;;2.03;1.83;;;23.20;72.90;;;;;;5079255;28;20476;-59
2023/07/23 03:14:06;;;;;;;1.70;1.53;;;23.20;72.70;;;;;;5089439;28;20961;-59
2023/07/23 03:16:33;;;;;;;2.60;2.10;;;23.20;72.80;;;;;;5091730;28;20458;-59
2023/07/23 03:19:00;;;;;;;2.70;2.50;;;23.20;72.80;;;;;;5086420;28;20463;-59
2023/07/23 03:21:26;;;;;;;2.57;2.37;;;23.20;72.80;;;;;;5088718;28;20948;-59
2023/07/23 03:23:54;;;;;;;2.60;2.40;;;23.20;72.80;;;;;;5087436;28;20459;-59
2023/07/23 03:26:21;;;;;;;2.13;1.93;;;23.20;72.80;;;;;;5082922;28;20455;-59
2023/07/23 03:28:48;;;;;;;1.90;1.70;;;23.20;72.80;;;;;;5078528;28;20827;-59
2023/07/23 03:31:14;;;;;;;2.10;1.90;;;23.20;72.90;;;;;;5080914;28;20478;-59
2023/07/23 03:33:41;;;;;;;2.20;2.00;;;23.20;72.90;;;;;;5084960;28;20459;-59
2023/07/23 03:36:10;;;;;;;3.00;2.47;;;23.20;72.90;;;;;;5081687;28;20479;-59
2023/07/23 03:38:37;;;;;;;2.43;2.23;;;23.20;72.90;;;;;;5079462;28;20546;-59
2023/07/23 03:41:05;;;;;;;2.20;2.00;;;23.20;72.90;;;;;;5090359;28;20538;-59
2023/07/23 03:43:32;;;;;;;3.23;2.13;;;23.20;72.90;;;;;;5088970;28;20572;-59
2023/07/23 03:45:58;;;;;;;2.07;1.60;;;23.20;72.90;;;;;;5091217;28;20470;-59
2023/07/23 03:48:25;;;;;;;2.50;2.30;;;23.20;73.00;;;;;;5083843;28;20804;-59
2023/07/23 03:50:52;;;;;;;2.30;2.10;;;23.20;72.90;;;;;;5082095;28;20487;-59
2023/07/23 03:53:18;;;;;;;2.63;2.20;;;23.20;73.00;;;;;;5078691;28;20453;-59
2023/07/23 03:55:45;;;;;;;1.63;1.53;;;23.20;73.00;;;;;;5086813;28;20466;-59
2023/07/23 03:58:13;;;;;;;2.20;1.80;;;23.20;73.00;;;;;;5082518;28;20454;-58
2023/07/23 04:00:40;;;;;;;1.83;1.70;;;23.20;73.00;;;;;;5083017;28;20466;-58
2023/07/23 04:03:07;;;;;;;1.90;1.80;;;23.20;73.00;;;;;;5085338;28;20967;-58
2023/07/23 04:05:34;;;;;;;2.60;2.40;;;23.20;73.20;;;;;;5094751;28;20834;-58
2023/07/23 04:08:02;;;;;;;2.30;2.10;;;23.20;73.10;;;;;;5084503;28;20455;-59
2023/07/23 04:10:29;;;;;;;2.03;1.93;;;23.20;73.10;;;;;;5085876;28;20478;-59
2023/07/23 04:12:55;;;;;;;2.77;2.40;;;23.20;73.10;;;;;;5092980;28;20462;-59
2023/07/23 04:15:23;;;;;;;2.30;2.10;;;23.20;73.10;;;;;;5090788;28;21061;-58
2023/07/23 04:17:50;;;;;;;2.47;2.17;;;23.20;73.10;;;;;;5092369;28;20549;-59
2023/07/23 04:20:17;;;;;;;1.80;1.60;;;23.10;73.00;;;;;;5094295;28;20455;-58
2023/07/23 04:22:44;;;;;;;2.07;1.90;;;23.10;73.10;;;;;;5086712;28;20459;-59
2023/07/23 04:25:11;;;;;;;2.33;2.13;;;23.20;73.20;;;;;;5096722;28;20443;-58
2023/07/23 04:27:38;;;;;;;2.37;2.17;;;23.10;73.10;;;;;;5081428;28;20458;-59
2023/07/23 04:30:05;;;;;;;1.70;1.60;;;23.10;73.10;;;;;;5079554;28;20511;-59
2023/07/23 04:32:33;;;;;;;2.20;2.00;;;23.10;73.10;;;;;;5081430;28;20459;-59
2023/07/23 04:35:00;;;;;;;1.60;1.50;;;23.10;73.10;;;;;;5077192;28;20894;-59
2023/07/23 04:37:26;;;;;;;1.80;1.60;;;23.10;73.10;;;;;;5078104;28;20450;-59
2023/07/23 04:39:53;;;;;;;2.10;1.90;;;23.10;73.10;;;;;;5083547;28;20464;-59
2023/07/23 04:42:20;;;;;;;2.23;2.03;;;23.10;73.20;;;;;;5078955;28;20671;-58
2023/07/23 04:44:47;;;;;;;1.90;1.80;;;23.10;73.10;;;;;;5076996;28;20464;-58
2023/07/23 04:47:13;;;;;;;2.27;2.07;;;23.10;73.20;;;;;;5084196;28;20455;-58
2023/07/23 04:49:41;;;;;;;1.90;1.67;;;23.10;73.30;;;;;;5082124;28;20468;-58
2023/07/23 04:52:08;;;;;;;2.70;2.50;;;23.10;73.20;;;;;;5080208;28;21964;-59
2023/07/23 04:54:35;;;;;;;1.93;1.83;;;23.10;73.20;;;;;;5080975;28;20459;-58
2023/07/23 04:57:01;;;;;;;2.67;2.47;;;23.10;73.30;;;;;;5080134;28;20471;-59
2023/07/23 04:59:28;;;;;;;2.33;2.13;;;23.10;73.20;;;;;;5084441;27;20465;-59
2023/07/23 05:01:55;;;;;;;2.27;2.00;;;23.10;73.30;;;;;;5082280;28;20452;-59
2023/07/23 05:04:21;;;;;;;2.20;2.00;;;23.10;73.30;;;;;;5085567;28;20452;-58
2023/07/23 05:06:50;;;;;;;1.97;1.87;;;23.10;73.20;;;;;;5079385;28;21080;-58
2023/07/23 05:09:16;;;;;;;2.50;2.30;;;23.10;73.40;;;;;;5078611;28;20467;-59
2023/07/23 05:11:43;;;;;;;2.43;2.23;;;23.10;73.30;;;;;;5086178;28;20493;-58
2023/07/23 05:14:10;;;;;;;2.10;1.90;;;23.10;73.40;;;;;;5086307;28;20452;-59
2023/07/23 05:16:36;;;;;;;2.53;2.17;;;23.10;73.40;;;;;;5089376;28;20459;-58
2023/07/23 05:19:03;;;;;;;2.33;2.13;;;23.10;73.40;;;;;;5091866;28;20815;-58
2023/07/23 05:21:30;;;;;;;2.13;1.93;;;23.10;73.50;;;;;;5088460;28;20488;-59
2023/07/23 05:23:58;;;;;;;2.27;2.07;;;23.10;73.50;;;;;;5088206;28;20567;-58
2023/07/23 05:26:25;;;;;;;2.10;1.90;;;23.10;73.50;;;;;;5084311;28;20462;-59
2023/07/23 05:28:52;;;;;;;2.27;1.70;;;23.10;73.50;;;;;;5080076;28;20862;-58
2023/07/23 05:31:18;;;;;;;2.20;2.00;;;23.10;73.50;;;;;;5079200;28;20745;-59
2023/07/23 05:33:45;;;;;;;2.40;1.93;;;23.10;73.50;;;;;;5084554;28;20948;-59
2023/07/23 05:36:12;;;;;;;2.20;2.00;;;23.10;73.50;;;;;;5081646;28;20502;-59
2023/07/23 05:38:38;;;;;;;1.80;1.70;;;23.10;73.50;;;;;;5084623;28;21047;-58
2023/07/23 05:41:06;;;;;;;2.07;1.87;;;23.10;73.50;;;;;;5089960;28;21186;-58
2023/07/23 05:43:33;;;;;;;1.80;1.60;;;23.00;73.40;;;;;;5084737;28;20973;-59
2023/07/23 05:46:00;;;;;;;2.10;1.90;;;23.10;73.50;;;;;;5081392;28;20819;-58
2023/07/23 05:48:27;;;;;;;1.70;1.50;;;23.10;73.50;;;;;;5086266;28;20795;-58
2023/07/23 05:50:53;;;;;;;2.30;2.10;;;23.10;73.50;;;;;;5085878;28;20470;-58
2023/07/23 05:53:20;;;;;;;1.70;1.60;;;23.10;73.50;;;;;;5088569;28;20470;-58
2023/07/23 05:55:47;;;;;;;2.00;1.80;;;23.10;73.50;;;;;;5086424;28;20848;-58
2023/07/23 05:58:15;;;;;;;2.00;1.73;;;23.00;73.50;;;;;;5081070;28;20451;-58
2023/07/23 06:00:41;;;;;;;1.80;1.50;;;23.00;73.40;;;;;;5079273;28;20452;-58
2023/07/23 06:03:08;;;;;;;2.33;2.13;;;23.00;73.40;;;;;;5080631;28;20849;-58
2023/07/23 06:05:35;;;;;;;2.43;2.23;;;23.00;73.50;;;;;;5082426;28;20471;-58
2023/07/23 06:08:02;;;;;;;2.30;2.10;;;23.00;73.50;;;;;;5078613;28;20467;-58
2023/07/23 06:10:28;;;;;;;1.80;1.70;;;23.00;73.50;;;;;;5083415;28;20470;-59
2023/07/23 06:12:55;;;;;;;1.97;1.77;;;23.00;73.50;;;;;;5088783;28;20492;-58
2023/07/23 06:15:23;;;;;;;2.70;2.50;;;23.00;73.50;;;;;;5087198;28;20815;-59
2023/07/23 06:17:50;;;;;;;2.70;1.87;;;23.00;73.50;;;;;;5084999;28;20461;-58
2023/07/23 06:20:17;;;;;;;2.50;2.30;;;23.00;73.60;;;;;;5083288;28;20459;-59
2023/07/23 06:22:43;;;;;;;1.70;1.60;;;23.00;73.50;;;;;;5083356;28;20458;-58
2023/07/23 06:25:10;;;;;;;1.90;1.60;;;23.00;73.60;;;;;;5084271;28;20459;-59
2023/07/23 06:27:37;;;;;;;1.80;1.60;;;23.00;73.60;;;;;;5083310;28;20481;-59
2023/07/23 06:30:04;;;;;;;1.53;1.43;;;23.00;73.60;;;;;;5078242;28;20459;-59
2023/07/23 06:32:32;;;;;;;2.30;2.10;;;23.00;73.60;;;;;;5078988;28;21002;-59
2023/07/23 06:34:59;;;;;;;1.50;1.40;;;23.00;73.60;;;;;;5086239;28;20970;-59
2023/07/23 06:37:26;;;;;;;1.63;1.50;;;23.00;73.70;;;;;;5082459;28;20460;-60
2023/07/23 06:39:53;;;;;;;2.40;1.90;;;23.00;73.70;;;;;;5080952;28;21088;-58
2023/07/23 06:42:19;;;;;;;2.30;1.87;;;23.00;73.70;;;;;;5084378;28;20501;-58
2023/07/23 06:44:46;;;;;;;1.80;1.60;;;23.00;73.70;;;;;;5087504;28;20467;-59
2023/07/23 06:47:13;;;;;;;1.97;1.77;;;23.00;73.70;;;;;;5084403;28;20468;-58
2023/07/23 06:49:41;;;;;;;2.17;1.60;;;23.00;73.80;;;;;;5083057;28;21096;-59
2023/07/23 06:52:08;;;;;;;2.10;1.90;;;23.00;73.70;;;;;;5078131;28;20491;-58
2023/07/23 06:54:38;;;;;;;2.07;1.87;;;23.00;73.70;;;;;;5082393;28;20534;-58
2023/07/23 06:57:05;;;;;;;2.40;2.20;;;23.00;73.70;;;;;;5084223;28;20543;-59
2023/07/23 06:59:32;;;;;;;2.40;2.20;;;23.00;73.70;;;;;;5080345;28;20574;-58
2023/07/23 07:01:59;;;;;;;2.20;2.00;;;23.00;73.80;;;;;;5080818;28;20522;-58
2023/07/23 07:04:25;;;;;;;1.67;1.50;;;23.00;73.70;;;;;;5082785;28;21176;-59
2023/07/23 07:06:54;;;;;;;2.23;2.00;;;23.00;73.80;;;;;;5082145;28;20793;-59
2023/07/23 07:09:20;;;;;;;2.27;2.07;;;23.00;73.70;;;;;;5079510;28;20474;-59
2023/07/23 07:11:47;;;;;;;1.60;1.50;;;22.90;73.60;;;;;;5080138;28;20504;-59
2023/07/23 07:14:14;;;;;;;2.30;2.10;;;23.00;73.80;;;;;;5081944;28;20459;-59
2023/07/23 07:16:40;;;;;;;1.73;1.50;;;23.00;73.90;;;;;;5083723;28;20746;-58
2023/07/23 07:19:07;;;;;;;1.90;1.80;;;23.00;73.90;;;;;;5083371;28;20546;-59
2023/07/23 07:21:34;;;;;;;2.20;2.00;;;23.00;73.90;;;;;;5083660;28;20475;-59
2023/07/23 07:24:02;;;;;;;1.77;1.67;;;23.00;73.90;;;;;;5082686;28;20950;-59
2023/07/23 07:26:29;;;;;;;1.80;1.70;;;23.00;73.90;;;;;;5079826;28;20452;-59
2023/07/23 07:28:56;;;;;;;1.70;1.40;;;23.00;74.00;;;;;;5081397;28;20490;-59
2023/07/23 07:31:22;;;;;;;2.00;1.80;;;23.00;74.00;;;;;;5079566;28;20694;-59
2023/07/23 07:33:49;;;;;;;2.07;1.63;;;23.00;73.90;;;;;;5077001;28;20452;-59
2023/07/23 07:36:18;;;;;;;1.70;1.47;;;23.00;74.00;;;;;;5077408;28;20475;-59
2023/07/23 07:38:44;;;;;;;2.20;1.90;;;23.00;74.00;;;;;;5079630;28;20452;-58
2023/07/23 07:41:12;;;;;;;4.70;2.20;;;23.00;74.00;;;;;;5083452;28;20866;-59
2023/07/23 07:43:39;;;;;;;2.57;2.37;;;23.00;73.90;;;;;;5079296;28;20852;-59
2023/07/23 07:46:08;;;;;;;2.83;2.10;;;23.00;73.60;;;;;;5076691;28;20459;-59
2023/07/23 07:48:35;;;;;;;3.30;3.00;;;22.90;73.20;;;;;;5077900;28;21065;-59
2023/07/23 07:51:03;;;;;;;2.93;2.30;;;22.90;73.20;;;;;;5075960;28;20520;-59
2023/07/23 07:53:31;;;;;;;3.70;2.97;;;22.90;72.90;;;;;;5072714;28;20447;-59
2023/07/23 07:55:59;;;;;;;4.73;2.40;;;22.90;73.00;;;;;;5070279;28;20982;-59
2023/07/23 07:58:27;;;;;;;4.50;3.00;;;22.90;72.70;;;;;;5071344;28;20462;-59
2023/07/23 08:00:55;;;;;;;3.07;2.77;;;22.90;72.40;;;;;;5072932;28;20532;-59
2023/07/23 08:03:24;;;;;;;3.83;2.70;;;22.90;72.00;;;;;;5073938;28;20546;-59
2023/07/23 08:05:51;;;;;;;3.77;3.07;;;22.80;71.70;;;;;;5081070;28;20541;-59
2023/07/23 08:08:23;;;;;;;4.00;3.40;;;22.80;71.40;;;;;;5068632;28;20456;-59
2023/07/23 08:10:51;;;;;;;3.50;2.93;;;22.80;71.40;;;;;;5076777;28;20805;-59
2023/07/23 08:13:18;;;;;;;3.17;2.53;;;22.80;71.40;;;;;;5072763;28;20668;-58
2023/07/23 08:15:47;;;;;;;4.93;2.80;;;22.80;71.50;;;;;;5071015;28;20454;-58
2023/07/23 08:18:14;;;;;;;3.50;3.20;;;22.80;71.70;;;;;;5072222;28;20458;-59
2023/07/23 08:20:41;;;;;;;3.87;2.90;;;22.80;71.80;;;;;;5074221;28;20460;-58
2023/07/23 08:23:09;;;;;;;5.37;2.93;;;22.80;71.80;;;;;;5080101;28;20463;-59
2023/07/23 08:25:37;;;;;;;3.40;2.80;;;22.80;72.00;;;;;;5086559;28;20458;-59
2023/07/23 08:28:05;;;;;;;4.43;3.43;;;22.80;72.10;;;;;;5086327;28;20456;-59
2023/07/23 08:30:32;;;;;;;4.40;3.10;;;22.80;72.20;;;;;;5083858;28;20448;-59
2023/07/23 08:33:02;;;;;;;3.37;2.97;;;22.80;72.30;;;;;;5081867;28;20471;-59
2023/07/23 08:35:30;;;;;;;4.30;2.47;;;22.80;72.50;;;;;;5080510;28;20479;-59
2023/07/23 08:37:57;;;;;;;3.10;2.80;;;22.80;72.60;;;;;;5080838;28;20463;-59
2023/07/23 08:40:26;;;;;;;7.37;3.27;;;22.90;72.70;;;;;;5082009;28;20460;-59
2023/07/23 08:43:32;;;;;;;3.23;2.97;;;22.90;72.80;;;;;;5082234;28;20555;-59
2023/07/23 08:46:21;;;;;;;3.40;3.10;;;22.90;72.90;;;;;;5080267;28;20861;-59
2023/07/23 08:49:04;;;;;;;3.43;2.90;;;22.90;73.10;;;;;;5083205;28;20462;-60
2023/07/23 08:51:40;;;;;;;3.93;2.50;;;22.90;73.20;;;;;;5084092;28;20933;-59
2023/07/23 08:54:08;;;;;;;8.10;2.83;;;22.90;73.20;;;;;;5083603;28;20462;-59
2023/07/23 08:56:35;;;;;;;4.00;3.17;;;22.90;73.30;;;;;;5085627;28;20509;-59
2023/07/23 08:59:04;;;;;;;3.30;2.90;;;22.90;73.20;;;;;;5078261;28;20460;-59
2023/07/23 09:01:34;;;;;;;6.30;2.73;;;22.90;73.30;;;;;;5085767;28;20455;-59
2023/07/23 09:04:04;;;;;;;5.93;3.20;;;22.90;73.40;;;;;;5080507;27;20504;-60
2023/07/23 09:06:31;;;;;;;3.50;2.70;;;22.90;73.40;;;;;;5078477;28;20459;-59
2023/07/23 09:09:05;;;;;;;5.40;2.30;;;22.90;73.40;;;;;;5079745;28;20467;-59
2023/07/23 09:11:32;;;;;;;2.70;2.50;;;22.90;73.50;;;;;;5077227;28;20460;-59
2023/07/23 09:14:00;;;;;;;4.37;2.43;;;22.90;73.50;;;;;;5078609;28;20492;-59
2023/07/23 09:16:27;;;;;;;3.07;2.83;;;22.90;73.50;;;;;;5088137;28;20960;-59
2023/07/23 09:18:54;;;;;;;3.80;3.27;;;22.90;73.60;;;;;;5086569;28;21142;-59
2023/07/23 09:21:27;;;;;;;4.40;3.43;;;22.90;73.60;;;;;;5089683;28;21613;-59
2023/07/23 09:23:55;;;;;;;4.90;2.97;;;22.90;73.70;;;;;;5085999;28;21093;-59
2023/07/23 09:26:24;;;;;;;4.13;2.80;;;22.90;73.70;;;;;;5089471;28;20809;-60
2023/07/23 09:28:52;;;;;;;5.20;2.80;;;22.90;73.70;;;;;;5087432;28;20491;-59
2023/07/23 09:31:26;;;;;;;3.63;3.33;;;22.90;73.80;;;;;;5083816;28;21015;-60
2023/07/23 09:33:54;;;;;;;3.07;2.80;;;22.90;73.90;;;;;;5084189;28;20483;-59
2023/07/23 09:36:22;;;;;;;2.80;2.60;;;22.90;73.90;;;;;;5084426;28;20470;-59
2023/07/23 09:39:01;;;;;;;3.50;2.90;;;22.90;73.90;;;;;;5082056;28;21797;-59
2023/07/23 09:41:30;;;;;;;3.10;2.80;;;22.90;74.00;;;;;;5083249;28;20451;-60
2023/07/23 09:44:02;;;;;;;3.33;2.63;;;22.90;74.00;;;;;;5083021;28;20502;-59
2023/07/23 09:46:30;;;;;;;3.43;3.13;;;22.90;74.00;;;;;;5082347;28;20959;-59
2023/07/23 09:48:57;;;;;;;3.83;2.60;;;22.90;74.10;;;;;;5083852;28;20947;-59
2023/07/23 09:51:24;;;;;;;3.47;3.13;;;22.90;74.20;;;;;;5082626;28;20947;-59
2023/07/23 09:53:51;;;;;;;4.40;2.70;;;22.90;74.20;;;;;;5079186;28;20533;-59
2023/07/23 09:56:22;;;;;;;3.57;2.97;;;22.90;74.20;;;;;;5075922;27;20465;-59
2023/07/23 09:58:50;;;;;;;3.80;3.40;;;22.90;74.30;;;;;;5082702;28;20460;-59
2023/07/23 10:01:18;;;;;;;5.30;3.00;;;22.90;75.20;;;;;;5082288;28;20463;-59
2023/07/23 10:03:45;;;;;;;2.87;2.67;;;22.90;74.30;;;;;;5084884;28;20467;-59
2023/07/23 10:06:12;;;;;;;3.40;2.90;;;22.90;74.50;;;;;;5082129;28;20955;-59
2023/07/23 10:08:44;;;;;;;3.43;3.13;;;22.90;74.50;;;;;;5077259;28;20896;-60
2023/07/23 10:11:11;;;;;;;5.10;3.33;;;22.90;74.50;;;;;;5075676;28;20541;-59
2023/07/23 10:13:41;;;;;;;3.10;2.80;;;22.90;74.50;;;;;;5079400;28;21169;-59
2023/07/23 10:16:12;;;;;;;3.67;2.83;;;22.90;74.50;;;;;;5075403;28;20460;-55
2023/07/23 10:18:42;;;;;;;2.97;2.67;;;22.90;74.70;;;;;;5082494;28;20459;-52
2023/07/23 10:21:10;;;;;;;3.03;2.60;;;22.90;74.90;;;;;;5069767;28;20981;-58
2023/07/23 10:23:39;;;;;;;3.67;2.80;;;22.90;75.20;;;;;;5081283;28;20989;-59
2023/07/23 10:26:20;;;;;;;3.13;2.10;;;22.90;75.30;;;;;;5078912;28;20463;-60
2023/07/23 10:28:49;;;;;;;4.10;3.00;;;22.90;75.80;;;;;;5079067;28;20456;-55
2023/07/23 10:31:24;;;;;;;5.97;2.73;;;22.90;76.60;;;;;;5079923;28;20456;-59
2023/07/23 10:33:51;;;;;;;3.57;2.37;;;23.00;76.70;;;;;;5078466;28;20530;-59
2023/07/23 10:36:18;;;;;;;5.43;2.87;;;23.00;77.30;;;;;;5077686;28;21091;-53
2023/07/23 10:38:46;;;;;;;3.50;2.27;;;23.00;77.30;;;;;;5078809;28;20459;-59
2023/07/23 10:41:14;;;;;;;3.00;2.50;;;23.00;77.40;;;;;;5080067;28;20455;-60
2023/07/23 10:43:42;;;;;;;3.07;2.77;;;23.00;77.60;;;;;;5077840;28;20464;-59
2023/07/23 10:46:12;;;;;;;4.20;2.60;;;23.00;78.20;;;;;;5077699;28;20832;-58
2023/07/23 10:48:39;;;;;;;2.30;2.10;;;23.00;78.50;;;;;;5080399;28;20463;-59
2023/07/23 10:51:08;;;;;;;3.70;3.07;;;23.00;78.60;;;;;;5079095;28;20662;-54
2023/07/23 10:53:39;;;;;;;2.90;2.10;;;23.10;78.90;;;;;;5076239;28;20566;-57
2023/07/23 10:56:24;;;;;;;4.20;2.93;;;23.10;78.70;;;;;;5078213;28;20473;-60
2023/07/23 10:58:51;;;;;;;2.80;2.53;;;23.10;78.90;;;;;;5082076;28;20474;-59
2023/07/23 11:01:24;;;;;;;2.07;1.87;;;23.10;79.00;;;;;;5081797;28;20496;-56
2023/07/23 11:03:55;;;;;;;4.53;3.07;;;23.10;79.00;;;;;;5074750;28;20464;-54
2023/07/23 11:06:29;;;;;;;2.33;2.13;;;23.10;79.30;;;;;;5073532;28;20486;-57
2023/07/23 11:08:57;;;;;;;3.63;2.43;;;23.20;79.80;;;;;;5076316;28;21726;-55
2023/07/23 11:11:32;;;;;;;2.27;2.07;;;23.20;80.10;;;;;;5077458;28;21133;-58
2023/07/23 11:13:58;;;;;;;3.67;2.30;;;23.20;81.20;;;;;;5078798;28;20478;-57
2023/07/23 11:16:28;;;;;;;2.00;1.80;;;23.20;80.60;;;;;;5075845;28;20462;-60
2023/07/23 11:18:55;;;;;;;2.20;2.00;;;23.20;80.50;;;;;;5085643;28;20555;-65
2023/07/23 11:21:22;;;;;;;3.03;2.40;;;23.30;80.60;;;;;;5090056;28;20463;-53
2023/07/23 11:23:48;;;;;;;3.60;2.33;;;23.30;80.80;;;;;;5090196;28;21128;-53
2023/07/23 11:26:17;;;;;;;1.90;1.80;;;23.30;81.00;;;;;;5087065;28;20478;-54
2023/07/23 11:28:44;;;;;;;3.87;2.40;;;23.30;81.50;;;;;;5088568;28;20459;-55
2023/07/23 11:31:11;;;;;;;2.63;2.43;;;23.30;81.80;;;;;;5085530;28;20474;-55
2023/07/23 11:33:39;;;;;;;2.63;2.33;;;23.30;82.10;;;;;;5083586;28;20475;-57
2023/07/23 11:36:06;;;;;;;4.13;2.93;;;23.30;82.20;;;;;;5091004;28;20459;-58
2023/07/23 11:38:33;;;;;;;2.50;1.90;;;23.30;82.50;;;;;;5086313;28;24184;-57
2023/07/23 11:41:01;;;;;;;2.63;2.43;;;23.40;82.70;;;;;;5081642;28;20455;-56
2023/07/23 11:43:28;;;;;;;3.10;2.80;;;23.40;82.70;;;;;;5085811;28;20541;-59
2023/07/23 11:45:55;;;;;;;2.40;2.20;;;23.40;82.80;;;;;;5083226;28;20812;-54
2023/07/23 11:48:23;;;;;;;2.30;2.10;;;23.40;82.90;;;;;;5084713;28;20462;-60
2023/07/23 11:50:53;;;;;;;3.03;2.40;;;23.40;82.90;;;;;;5088041;28;20455;-63
2023/07/23 11:53:34;;;;;;;2.33;2.07;;;23.40;82.90;;;;;;5089868;28;20474;-56
2023/07/23 11:56:09;;;;;;;2.73;2.53;;;23.40;83.00;;;;;;5090669;28;20959;-55
2023/07/23 11:58:37;;;;;;;2.97;2.10;;;23.50;83.10;;;;;;5094625;27;20585;-57
2023/07/23 12:01:05;;;;;;;2.57;2.00;;;23.50;83.30;;;;;;5094906;28;20545;-57
2023/07/23 12:03:34;;;;;;;2.53;2.20;;;23.50;83.30;;;;;;5089757;28;20459;-55
2023/07/23 12:06:03;;;;;;;2.77;1.90;;;23.50;83.30;;;;;;5092414;28;20593;-54
2023/07/23 12:08:30;;;;;;;2.07;1.63;;;23.50;83.40;;;;;;5093336;28;20456;-61
2023/07/23 12:10:57;;;;;;;2.30;2.10;;;23.50;83.50;;;;;;5083516;28;20502;-50
2023/07/23 12:13:26;;;;;;;1.73;1.63;;;23.50;83.90;;;;;;5085980;28;20480;-53
2023/07/23 12:15:57;;;;;;;1.70;1.50;;;23.60;84.00;;;;;;5084248;28;20867;-52
2023/07/23 12:18:26;;;;;;;1.57;1.40;;;23.60;84.50;;;;;;5087610;28;21031;-56
2023/07/23 12:20:58;;;;;;;2.03;1.50;;;23.60;84.50;;;;;;5087731;28;20470;-60
2023/07/23 12:23:26;;;;;;;5.40;2.37;;;23.60;84.60;;;;;;5084752;28;20456;-61
2023/07/23 12:25:53;;;;;;;2.47;1.87;;;23.60;84.80;;;;;;5085346;28;20792;-57
2023/07/23 12:28:24;;;;;;;1.93;1.73;;;23.60;84.60;;;;;;5085678;28;20464;-53
2023/07/23 12:30:50;;;;;;;1.60;1.50;;;23.60;85.00;;;;;;5086166;28;21105;-56
2023/07/23 12:33:17;;;;;;;1.70;1.60;;;23.60;85.60;;;;;;5085571;28;20479;-55
2023/07/23 12:35:44;;;;;;;6.13;1.70;;;23.70;86.20;;;;;;5086584;28;20484;-56
2023/07/23 12:38:10;;;;;;;1.63;1.50;;;23.70;86.30;;;;;;5086369;28;20455;-53
2023/07/23 12:40:39;;;;;;;1.47;1.30;;;23.70;87.50;;;;;;5086444;28;20464;-55
2023/07/23 12:43:06;;;;;;;1.67;1.43;;;23.70;89.30;;;;;;5086089;28;20475;-60
2023/07/23 12:45:32;;;;;;;3.10;1.60;;;23.70;90.40;;;;;;5080460;28;20537;-63
2023/07/23 12:47:59;;;;;;;1.67;1.40;;;23.80;90.50;;;;;;5084308;28;20534;-55
2023/07/23 12:50:26;;;;;;;1.83;1.70;;;23.80;90.80;;;;;;5086701;28;20455;-57